sensor_id;sensor_type;location;lat;lon;timestamp;temperature;humidity
30174;DHT22;16985;50.814;8.530;2023-09-18T00:00:05;18.40;99.90
30174;DHT22;16985;50.814;8.530;2023-09-18T00:02:37;18.30;99.90
30174;DHT22;16985;50.814;8.530;2023-09-18T00:05:03;18.30;99.90
30174;DHT22;16985;50.814;8.530;2023-09-18T00:07:29;18.30;99.90
30174;DHT22;16985;50.814;8.530;2023-09-18T00:09:55;18.30;99.90
30174;DHT22;16985;50.814;8.530;2023-09-18T00:12:21;18.20;99.90
30174;DHT22;16985;50.814;8.530;2023-09-18T00:14:50;18.20;99.90
30174;DHT22;16985;50.814;8.530;2023-09-18T00:17:16;18.20;99.90
30174;DHT22;16985;50.814;8.530;2023-09-18T00:19:43;18.10;99.90
30174;DHT22;16985;50.814;8.530;2023-09-18T00:22:09;18.10;99.90
30174;DHT22;16985;50.814;8.530;2023-09-18T00:24:35;18.10;99.90
30174;DHT22;16985;50.814;8.530;2023-09-18T00:27:01;18.00;99.90
30174;DHT22;16985;50.814;8.530;2023-09-18T00:29:26;18.00;99.90
30174;DHT22;16985;50.814;8.530;2023-09-18T00:31:52;18.00;99.90
30174;DHT22;16985;50.814;8.530;2023-09-18T00:34:18;18.00;99.90
30174;DHT22;16985;50.814;8.530;2023-09-18T00:36:44;17.90;99.90
30174;DHT22;16985;50.814;8.530;2023-09-18T00:39:10;17.90;99.90
30174;DHT22;16985;50.814;8.530;2023-09-18T00:41:36;17.90;99.90
30174;DHT22;16985;50.814;8.530;2023-09-18T00:44:02;17.90;99.90
30174;DHT22;16985;50.814;8.530;2023-09-18T00:46:31;17.80;99.90
30174;DHT22;16985;50.814;8.530;2023-09-18T00:48:57;17.80;99.90
30174;DHT22;16985;50.814;8.530;2023-09-18T00:51:22;17.80;99.90
30174;DHT22;16985;50.814;8.530;2023-09-18T00:53:49;17.70;99.90
30174;DHT22;16985;50.814;8.530;2023-09-18T00:56:15;17.70;99.90
30174;DHT22;16985;50.814;8.530;2023-09-18T00:58:42;17.70;99.90
30174;DHT22;16985;50.814;8.530;2023-09-18T01:01:10;17.70;99.90
30174;DHT22;16985;50.814;8.530;2023-09-18T01:03:36;17.60;99.90
30174;DHT22;16985;50.814;8.530;2023-09-18T01:06:02;17.70;99.90
30174;DHT22;16985;50.814;8.530;2023-09-18T01:08:29;17.60;99.90
30174;DHT22;16985;50.814;8.530;2023-09-18T01:11:19;17.60;99.90
30174;DHT22;16985;50.814;8.530;2023-09-18T01:16:53;17.50;99.90
30174;DHT22;16985;50.814;8.530;2023-09-18T01:19:54;17.50;99.90
30174;DHT22;16985;50.814;8.530;2023-09-18T01:22:20;17.50;99.90
30174;DHT22;16985;50.814;8.530;2023-09-18T01:24:48;17.40;99.90
30174;DHT22;16985;50.814;8.530;2023-09-18T01:27:16;17.40;99.90
30174;DHT22;16985;50.814;8.530;2023-09-18T01:29:47;17.30;99.90
30174;DHT22;16985;50.814;8.530;2023-09-18T01:32:13;17.40;99.90
30174;DHT22;16985;50.814;8.530;2023-09-18T01:34:48;17.30;99.90
30174;DHT22;16985;50.814;8.530;2023-09-18T01:37:20;17.20;99.90
30174;DHT22;16985;50.814;8.530;2023-09-18T01:39:49;17.20;99.90
30174;DHT22;16985;50.814;8.530;2023-09-18T01:42:17;17.20;99.90
30174;DHT22;16985;50.814;8.530;2023-09-18T01:44:43;17.20;99.90
30174;DHT22;16985;50.814;8.530;2023-09-18T01:47:13;17.10;99.90
30174;DHT22;16985;50.814;8.530;2023-09-18T01:49:41;17.10;99.90
30174;DHT22;16985;50.814;8.530;2023-09-18T01:52:08;17.10;99.90
30174;DHT22;16985;50.814;8.530;2023-09-18T01:54:36;17.10;99.90
30174;DHT22;16985;50.814;8.530;2023-09-18T01:57:02;17.10;99.90
30174;DHT22;16985;50.814;8.530;2023-09-18T01:59:29;17.10;99.90
30174;DHT22;16985;50.814;8.530;2023-09-18T02:01:56;17.10;99.90
30174;DHT22;16985;50.814;8.530;2023-09-18T02:04:22;17.00;99.90
30174;DHT22;16985;50.814;8.530;2023-09-18T02:06:50;17.00;99.90
30174;DHT22;16985;50.814;8.530;2023-09-18T02:09:16;17.00;99.90
30174;DHT22;16985;50.814;8.530;2023-09-18T02:11:46;17.00;99.90
30174;DHT22;16985;50.814;8.530;2023-09-18T02:14:12;16.90;99.90
30174;DHT22;16985;50.814;8.530;2023-09-18T02:16:40;17.00;99.90
30174;DHT22;16985;50.814;8.530;2023-09-18T02:19:08;16.90;99.90
30174;DHT22;16985;50.814;8.530;2023-09-18T02:21:34;16.90;99.90
30174;DHT22;16985;50.814;8.530;2023-09-18T02:24:01;16.90;99.90
30174;DHT22;16985;50.814;8.530;2023-09-18T02:26:27;16.90;99.90
30174;DHT22;16985;50.814;8.530;2023-09-18T02:28:54;16.90;99.90
30174;DHT22;16985;50.814;8.530;2023-09-18T02:31:21;16.90;99.90
30174;DHT22;16985;50.814;8.530;2023-09-18T02:33:48;16.90;99.90
30174;DHT22;16985;50.814;8.530;2023-09-18T02:36:14;16.80;99.90
30174;DHT22;16985;50.814;8.530;2023-09-18T02:38:40;16.90;99.90
30174;DHT22;16985;50.814;8.530;2023-09-18T02:41:06;16.90;99.90
30174;DHT22;16985;50.814;8.530;2023-09-18T02:43:32;16.80;99.90
30174;DHT22;16985;50.814;8.530;2023-09-18T02:45:58;16.80;99.90
30174;DHT22;16985;50.814;8.530;2023-09-18T02:48:24;16.80;99.90
30174;DHT22;16985;50.814;8.530;2023-09-18T02:50:50;16.80;99.90
30174;DHT22;16985;50.814;8.530;2023-09-18T02:53:22;16.70;99.90
30174;DHT22;16985;50.814;8.530;2023-09-18T02:55:50;16.70;99.90
30174;DHT22;16985;50.814;8.530;2023-09-18T02:58:18;16.80;99.90
30174;DHT22;16985;50.814;8.530;2023-09-18T03:00:49;16.70;99.90
30174;DHT22;16985;50.814;8.530;2023-09-18T03:03:15;16.70;99.90
30174;DHT22;16985;50.814;8.530;2023-09-18T03:05:43;16.80;99.90
30174;DHT22;16985;50.814;8.530;2023-09-18T03:08:10;16.90;99.90
30174;DHT22;16985;50.814;8.530;2023-09-18T03:10:40;16.90;99.90
30174;DHT22;16985;50.814;8.530;2023-09-18T03:13:08;17.00;99.90
30174;DHT22;16985;50.814;8.530;2023-09-18T03:15:35;17.10;99.90
30174;DHT22;16985;50.814;8.530;2023-09-18T03:18:03;17.20;99.90
30174;DHT22;16985;50.814;8.530;2023-09-18T03:20:31;17.30;99.90
30174;DHT22;16985;50.814;8.530;2023-09-18T03:23:00;17.40;99.90
30174;DHT22;16985;50.814;8.530;2023-09-18T03:25:26;17.50;99.90
30174;DHT22;16985;50.814;8.530;2023-09-18T03:27:54;17.50;99.90
30174;DHT22;16985;50.814;8.530;2023-09-18T03:30:23;17.50;99.90
30174;DHT22;16985;50.814;8.530;2023-09-18T03:32:50;17.60;99.90
30174;DHT22;16985;50.814;8.530;2023-09-18T03:35:18;17.60;99.90
30174;DHT22;16985;50.814;8.530;2023-09-18T03:37:49;17.60;99.90
30174;DHT22;16985;50.814;8.530;2023-09-18T03:40:17;17.60;99.90
30174;DHT22;16985;50.814;8.530;2023-09-18T03:42:45;17.70;99.90
30174;DHT22;16985;50.814;8.530;2023-09-18T03:45:11;17.70;99.90
30174;DHT22;16985;50.814;8.530;2023-09-18T03:47:47;17.70;99.90
30174;DHT22;16985;50.814;8.530;2023-09-18T03:50:15;17.70;99.90
30174;DHT22;16985;50.814;8.530;2023-09-18T03:52:41;17.80;99.90
30174;DHT22;16985;50.814;8.530;2023-09-18T03:55:07;17.80;99.90
30174;DHT22;16985;50.814;8.530;2023-09-18T03:57:34;17.80;99.90
30174;DHT22;16985;50.814;8.530;2023-09-18T04:00:00;17.90;99.90
30174;DHT22;16985;50.814;8.530;2023-09-18T04:02:26;17.90;99.90
30174;DHT22;16985;50.814;8.530;2023-09-18T04:04:55;17.90;99.90
30174;DHT22;16985;50.814;8.530;2023-09-18T04:07:21;17.90;99.90
30174;DHT22;16985;50.814;8.530;2023-09-18T04:09:47;18.00;99.90
30174;DHT22;16985;50.814;8.530;2023-09-18T04:12:13;18.00;99.90
30174;DHT22;16985;50.814;8.530;2023-09-18T04:14:39;18.10;99.90
30174;DHT22;16985;50.814;8.530;2023-09-18T04:17:05;18.00;99.90
30174;DHT22;16985;50.814;8.530;2023-09-18T04:19:31;18.10;99.90
30174;DHT22;16985;50.814;8.530;2023-09-18T04:21:57;18.10;99.90
30174;DHT22;16985;50.814;8.530;2023-09-18T04:24:23;18.10;99.90
30174;DHT22;16985;50.814;8.530;2023-09-18T04:26:49;18.10;99.90
30174;DHT22;16985;50.814;8.530;2023-09-18T04:29:19;18.10;99.90
30174;DHT22;16985;50.814;8.530;2023-09-18T04:31:47;18.20;99.90
30174;DHT22;16985;50.814;8.530;2023-09-18T04:34:14;18.10;99.90
30174;DHT22;16985;50.814;8.530;2023-09-18T04:36:40;18.20;99.90
30174;DHT22;16985;50.814;8.530;2023-09-18T04:39:06;18.10;99.90
30174;DHT22;16985;50.814;8.530;2023-09-18T04:41:33;18.00;99.90
30174;DHT22;16985;50.814;8.530;2023-09-18T04:44:00;18.10;99.90
30174;DHT22;16985;50.814;8.530;2023-09-18T04:46:26;18.10;99.90
30174;DHT22;16985;50.814;8.530;2023-09-18T04:48:52;18.00;99.90
30174;DHT22;16985;50.814;8.530;2023-09-18T04:51:18;18.10;99.90
30174;DHT22;16985;50.814;8.530;2023-09-18T04:53:44;18.10;99.90
30174;DHT22;16985;50.814;8.530;2023-09-18T04:56:10;18.10;99.90
30174;DHT22;16985;50.814;8.530;2023-09-18T04:58:37;18.20;99.90
30174;DHT22;16985;50.814;8.530;2023-09-18T05:01:03;18.10;99.90
30174;DHT22;16985;50.814;8.530;2023-09-18T05:03:33;18.10;99.90
30174;DHT22;16985;50.814;8.530;2023-09-18T05:06:00;18.10;99.90
30174;DHT22;16985;50.814;8.530;2023-09-18T05:08:26;18.10;99.90
30174;DHT22;16985;50.814;8.530;2023-09-18T05:10:51;18.10;99.90
30174;DHT22;16985;50.814;8.530;2023-09-18T05:13:17;18.10;99.90
30174;DHT22;16985;50.814;8.530;2023-09-18T05:15:43;18.10;99.90
30174;DHT22;16985;50.814;8.530;2023-09-18T05:18:09;18.10;99.90
30174;DHT22;16985;50.814;8.530;2023-09-18T05:20:35;18.10;99.90
30174;DHT22;16985;50.814;8.530;2023-09-18T05:23:01;18.10;99.90
30174;DHT22;16985;50.814;8.530;2023-09-18T05:25:29;18.10;99.90
30174;DHT22;16985;50.814;8.530;2023-09-18T05:28:00;18.10;99.90
30174;DHT22;16985;50.814;8.530;2023-09-18T05:30:28;18.10;99.90
30174;DHT22;16985;50.814;8.530;2023-09-18T05:32:57;18.10;99.90
30174;DHT22;16985;50.814;8.530;2023-09-18T05:35:30;18.10;99.90
30174;DHT22;16985;50.814;8.530;2023-09-18T05:37:56;18.10;99.90
30174;DHT22;16985;50.814;8.530;2023-09-18T05:40:24;18.10;99.90
30174;DHT22;16985;50.814;8.530;2023-09-18T05:42:54;18.10;99.90
30174;DHT22;16985;50.814;8.530;2023-09-18T05:45:20;18.10;99.90
30174;DHT22;16985;50.814;8.530;2023-09-18T05:47:47;18.10;99.90
30174;DHT22;16985;50.814;8.530;2023-09-18T05:50:14;18.10;99.90
30174;DHT22;16985;50.814;8.530;2023-09-18T05:52:41;18.10;99.90
30174;DHT22;16985;50.814;8.530;2023-09-18T05:55:08;18.10;99.90
30174;DHT22;16985;50.814;8.530;2023-09-18T05:57:35;18.10;99.90
30174;DHT22;16985;50.814;8.530;2023-09-18T06:00:01;18.00;99.90
30174;DHT22;16985;50.814;8.530;2023-09-18T06:02:37;18.10;99.90
30174;DHT22;16985;50.814;8.530;2023-09-18T06:05:03;18.20;99.90
30174;DHT22;16985;50.814;8.530;2023-09-18T06:07:30;18.20;99.90
30174;DHT22;16985;50.814;8.530;2023-09-18T06:09:57;18.20;99.90
30174;DHT22;16985;50.814;8.530;2023-09-18T06:12:24;18.10;99.90
30174;DHT22;16985;50.814;8.530;2023-09-18T06:14:50;18.20;99.90
30174;DHT22;16985;50.814;8.530;2023-09-18T06:17:16;18.20;99.90
30174;DHT22;16985;50.814;8.530;2023-09-18T06:19:43;18.30;99.90
30174;DHT22;16985;50.814;8.530;2023-09-18T06:22:11;18.20;99.90
30174;DHT22;16985;50.814;8.530;2023-09-18T06:24:37;18.20;99.90
30174;DHT22;16985;50.814;8.530;2023-09-18T06:27:04;18.20;99.90
30174;DHT22;16985;50.814;8.530;2023-09-18T06:29:31;18.30;99.90
30174;DHT22;16985;50.814;8.530;2023-09-18T06:31:58;18.30;99.90
30174;DHT22;16985;50.814;8.530;2023-09-18T06:34:24;18.20;99.90
30174;DHT22;16985;50.814;8.530;2023-09-18T06:36:50;18.30;99.90
30174;DHT22;16985;50.814;8.530;2023-09-18T06:39:16;18.30;99.90
30174;DHT22;16985;50.814;8.530;2023-09-18T06:41:42;18.30;99.90
30174;DHT22;16985;50.814;8.530;2023-09-18T06:44:11;18.30;99.90
30174;DHT22;16985;50.814;8.530;2023-09-18T06:46:37;18.30;99.90
30174;DHT22;16985;50.814;8.530;2023-09-18T06:49:03;18.40;99.90
30174;DHT22;16985;50.814;8.530;2023-09-18T06:51:29;18.40;99.90
30174;DHT22;16985;50.814;8.530;2023-09-18T06:53:55;18.40;99.90
30174;DHT22;16985;50.814;8.530;2023-09-18T06:56:23;18.40;99.90
30174;DHT22;16985;50.814;8.530;2023-09-18T06:58:50;18.40;99.90
30174;DHT22;16985;50.814;8.530;2023-09-18T07:01:21;18.40;99.90
30174;DHT22;16985;50.814;8.530;2023-09-18T07:03:48;18.40;99.90
30174;DHT22;16985;50.814;8.530;2023-09-18T07:06:17;18.40;99.90
30174;DHT22;16985;50.814;8.530;2023-09-18T07:08:46;18.40;99.90
30174;DHT22;16985;50.814;8.530;2023-09-18T07:11:15;18.50;99.90
30174;DHT22;16985;50.814;8.530;2023-09-18T07:13:41;18.50;99.90
30174;DHT22;16985;50.814;8.530;2023-09-18T07:16:09;18.40;99.90
30174;DHT22;16985;50.814;8.530;2023-09-18T07:18:35;18.50;99.90
30174;DHT22;16985;50.814;8.530;2023-09-18T07:21:00;18.50;99.90
30174;DHT22;16985;50.814;8.530;2023-09-18T07:23:27;18.60;99.90
30174;DHT22;16985;50.814;8.530;2023-09-18T07:25:53;18.50;99.90
30174;DHT22;16985;50.814;8.530;2023-09-18T07:28:18;18.50;99.90
30174;DHT22;16985;50.814;8.530;2023-09-18T07:30:46;18.60;99.90
30174;DHT22;16985;50.814;8.530;2023-09-18T07:33:13;18.60;99.90
30174;DHT22;16985;50.814;8.530;2023-09-18T07:35:49;18.60;99.90
30174;DHT22;16985;50.814;8.530;2023-09-18T07:38:17;18.70;99.90
30174;DHT22;16985;50.814;8.530;2023-09-18T07:40:45;18.60;99.90
30174;DHT22;16985;50.814;8.530;2023-09-18T07:43:12;18.70;99.90
30174;DHT22;16985;50.814;8.530;2023-09-18T07:45:39;18.70;99.90
30174;DHT22;16985;50.814;8.530;2023-09-18T07:48:08;18.80;99.90
30174;DHT22;16985;50.814;8.530;2023-09-18T07:50:35;18.80;99.90
30174;DHT22;16985;50.814;8.530;2023-09-18T07:53:01;18.80;99.90
30174;DHT22;16985;50.814;8.530;2023-09-18T07:55:27;18.80;99.90
30174;DHT22;16985;50.814;8.530;2023-09-18T07:57:54;18.90;99.90
30174;DHT22;16985;50.814;8.530;2023-09-18T08:00:21;18.90;99.90
30174;DHT22;16985;50.814;8.530;2023-09-18T08:02:48;18.90;99.90
30174;DHT22;16985;50.814;8.530;2023-09-18T08:05:17;18.90;99.90
30174;DHT22;16985;50.814;8.530;2023-09-18T08:07:43;19.00;99.90
30174;DHT22;16985;50.814;8.530;2023-09-18T08:10:09;19.00;99.90
30174;DHT22;16985;50.814;8.530;2023-09-18T08:12:38;19.00;99.90
30174;DHT22;16985;50.814;8.530;2023-09-18T08:15:04;18.90;99.90
30174;DHT22;16985;50.814;8.530;2023-09-18T08:17:31;19.10;99.90
30174;DHT22;16985;50.814;8.530;2023-09-18T08:20:00;19.10;99.90
30174;DHT22;16985;50.814;8.530;2023-09-18T08:22:26;19.10;99.90
30174;DHT22;16985;50.814;8.530;2023-09-18T08:24:52;19.10;99.90
30174;DHT22;16985;50.814;8.530;2023-09-18T08:27:19;19.10;99.90
30174;DHT22;16985;50.814;8.530;2023-09-18T08:29:47;19.10;99.90
30174;DHT22;16985;50.814;8.530;2023-09-18T08:32:13;19.10;99.90
30174;DHT22;16985;50.814;8.530;2023-09-18T08:34:39;19.20;99.90
30174;DHT22;16985;50.814;8.530;2023-09-18T08:37:05;19.20;99.90
30174;DHT22;16985;50.814;8.530;2023-09-18T08:39:31;19.20;99.90
30174;DHT22;16985;50.814;8.530;2023-09-18T08:42:03;19.20;99.90
30174;DHT22;16985;50.814;8.530;2023-09-18T08:44:30;19.20;99.90
30174;DHT22;16985;50.814;8.530;2023-09-18T08:46:57;19.20;99.90
30174;DHT22;16985;50.814;8.530;2023-09-18T08:49:23;19.20;99.90
30174;DHT22;16985;50.814;8.530;2023-09-18T08:51:54;19.30;99.90
30174;DHT22;16985;50.814;8.530;2023-09-18T08:54:21;19.30;99.90
30174;DHT22;16985;50.814;8.530;2023-09-18T08:56:52;19.30;99.90
30174;DHT22;16985;50.814;8.530;2023-09-18T08:59:21;19.30;99.90
30174;DHT22;16985;50.814;8.530;2023-09-18T09:01:50;19.40;99.90
30174;DHT22;16985;50.814;8.530;2023-09-18T09:04:16;19.40;99.90
30174;DHT22;16985;50.814;8.530;2023-09-18T09:06:42;19.40;99.90
30174;DHT22;16985;50.814;8.530;2023-09-18T09:09:09;19.40;99.90
30174;DHT22;16985;50.814;8.530;2023-09-18T09:11:38;19.40;99.90
30174;DHT22;16985;50.814;8.530;2023-09-18T09:14:12;19.50;99.90
30174;DHT22;16985;50.814;8.530;2023-09-18T09:16:51;19.50;99.90
30174;DHT22;16985;50.814;8.530;2023-09-18T09:19:18;19.50;99.90
30174;DHT22;16985;50.814;8.530;2023-09-18T09:21:45;19.60;99.90
30174;DHT22;16985;50.814;8.530;2023-09-18T09:24:12;19.60;99.90
30174;DHT22;16985;50.814;8.530;2023-09-18T09:26:41;19.60;99.90
30174;DHT22;16985;50.814;8.530;2023-09-18T09:29:19;19.60;99.90
30174;DHT22;16985;50.814;8.530;2023-09-18T09:31:45;19.60;99.90
30174;DHT22;16985;50.814;8.530;2023-09-18T09:34:12;19.60;99.90
30174;DHT22;16985;50.814;8.530;2023-09-18T09:36:57;19.60;99.90
30174;DHT22;16985;50.814;8.530;2023-09-18T09:39:23;19.70;99.90
30174;DHT22;16985;50.814;8.530;2023-09-18T09:41:53;19.60;99.90
30174;DHT22;16985;50.814;8.530;2023-09-18T09:44:20;19.70;99.90
30174;DHT22;16985;50.814;8.530;2023-09-18T09:46:47;19.70;99.90
30174;DHT22;16985;50.814;8.530;2023-09-18T09:49:14;19.70;99.90
30174;DHT22;16985;50.814;8.530;2023-09-18T09:51:43;19.70;99.90
30174;DHT22;16985;50.814;8.530;2023-09-18T09:54:09;19.80;99.90
30174;DHT22;16985;50.814;8.530;2023-09-18T09:56:48;19.70;99.90
30174;DHT22;16985;50.814;8.530;2023-09-18T09:59:17;19.70;99.90
30174;DHT22;16985;50.814;8.530;2023-09-18T10:01:48;19.80;99.90
30174;DHT22;16985;50.814;8.530;2023-09-18T10:04:17;19.80;99.90
30174;DHT22;16985;50.814;8.530;2023-09-18T10:06:46;19.80;99.90
30174;DHT22;16985;50.814;8.530;2023-09-18T10:09:16;19.80;99.90
30174;DHT22;16985;50.814;8.530;2023-09-18T10:11:45;19.80;99.90
30174;DHT22;16985;50.814;8.530;2023-09-18T10:14:20;19.80;99.90
30174;DHT22;16985;50.814;8.530;2023-09-18T10:16:53;19.80;99.90
30174;DHT22;16985;50.814;8.530;2023-09-18T10:19:40;19.80;99.90
30174;DHT22;16985;50.814;8.530;2023-09-18T10:22:30;19.80;99.90
30174;DHT22;16985;50.814;8.530;2023-09-18T10:25:14;19.80;99.90
30174;DHT22;16985;50.814;8.530;2023-09-18T10:27:46;19.80;99.90
30174;DHT22;16985;50.814;8.530;2023-09-18T10:30:15;19.80;99.90
30174;DHT22;16985;50.814;8.530;2023-09-18T10:32:45;19.80;99.90
30174;DHT22;16985;50.814;8.530;2023-09-18T10:35:14;19.80;99.90
30174;DHT22;16985;50.814;8.530;2023-09-18T10:37:45;19.80;99.90
30174;DHT22;16985;50.814;8.530;2023-09-18T10:40:12;19.90;99.90
30174;DHT22;16985;50.814;8.530;2023-09-18T10:42:40;19.90;99.90
30174;DHT22;16985;50.814;8.530;2023-09-18T10:45:10;19.90;99.90
30174;DHT22;16985;50.814;8.530;2023-09-18T10:47:39;19.90;99.90
30174;DHT22;16985;50.814;8.530;2023-09-18T10:50:07;19.90;99.90
30174;DHT22;16985;50.814;8.530;2023-09-18T10:52:35;19.90;99.90
30174;DHT22;16985;50.814;8.530;2023-09-18T10:55:02;20.00;99.90
30174;DHT22;16985;50.814;8.530;2023-09-18T10:57:37;20.00;99.90
30174;DHT22;16985;50.814;8.530;2023-09-18T11:00:04;20.00;99.90
30174;DHT22;16985;50.814;8.530;2023-09-18T11:02:42;20.00;99.90
30174;DHT22;16985;50.814;8.530;2023-09-18T11:05:08;20.00;99.90
30174;DHT22;16985;50.814;8.530;2023-09-18T11:07:33;20.10;99.90
30174;DHT22;16985;50.814;8.530;2023-09-18T11:10:00;20.10;99.90
30174;DHT22;16985;50.814;8.530;2023-09-18T11:12:52;20.20;99.90
30174;DHT22;16985;50.814;8.530;2023-09-18T11:15:31;20.20;99.90
30174;DHT22;16985;50.814;8.530;2023-09-18T11:17:58;20.20;99.90
30174;DHT22;16985;50.814;8.530;2023-09-18T11:20:25;20.20;99.90
30174;DHT22;16985;50.814;8.530;2023-09-18T11:25:39;20.30;99.90
30174;DHT22;16985;50.814;8.530;2023-09-18T11:28:22;20.30;99.90
30174;DHT22;16985;50.814;8.530;2023-09-18T11:30:51;20.30;99.90
30174;DHT22;16985;50.814;8.530;2023-09-18T11:36:46;20.30;99.90
30174;DHT22;16985;50.814;8.530;2023-09-18T11:38:54;20.40;99.90
30174;DHT22;16985;50.814;8.530;2023-09-18T11:41:29;20.40;99.90
30174;DHT22;16985;50.814;8.530;2023-09-18T11:46:47;20.50;99.90
30174;DHT22;16985;50.814;8.530;2023-09-18T11:49:19;20.40;99.90
30174;DHT22;16985;50.814;8.530;2023-09-18T11:51:48;20.60;99.90
30174;DHT22;16985;50.814;8.530;2023-09-18T11:54:16;20.60;99.90
30174;DHT22;16985;50.814;8.530;2023-09-18T11:56:42;20.60;99.90
30174;DHT22;16985;50.814;8.530;2023-09-18T11:59:08;20.70;99.90
30174;DHT22;16985;50.814;8.530;2023-09-18T12:01:36;20.70;99.90
30174;DHT22;16985;50.814;8.530;2023-09-18T12:04:05;20.80;99.90
30174;DHT22;16985;50.814;8.530;2023-09-18T12:06:43;20.80;99.90
30174;DHT22;16985;50.814;8.530;2023-09-18T12:09:12;20.90;99.90
30174;DHT22;16985;50.814;8.530;2023-09-18T12:11:41;20.90;99.90
30174;DHT22;16985;50.814;8.530;2023-09-18T12:14:07;20.90;99.90
30174;DHT22;16985;50.814;8.530;2023-09-18T12:16:39;21.00;99.90
30174;DHT22;16985;50.814;8.530;2023-09-18T12:19:05;21.00;99.90
30174;DHT22;16985;50.814;8.530;2023-09-18T12:21:40;21.00;99.90
30174;DHT22;16985;50.814;8.530;2023-09-18T12:24:06;21.10;99.90
30174;DHT22;16985;50.814;8.530;2023-09-18T12:26:32;21.10;99.90
30174;DHT22;16985;50.814;8.530;2023-09-18T12:28:59;21.10;99.90
30174;DHT22;16985;50.814;8.530;2023-09-18T12:31:25;21.20;99.90
30174;DHT22;16985;50.814;8.530;2023-09-18T12:33:51;21.20;99.90
30174;DHT22;16985;50.814;8.530;2023-09-18T12:36:19;21.20;99.90
30174;DHT22;16985;50.814;8.530;2023-09-18T12:38:56;21.30;99.90
30174;DHT22;16985;50.814;8.530;2023-09-18T12:41:25;21.30;99.90
30174;DHT22;16985;50.814;8.530;2023-09-18T12:43:51;21.40;99.90
30174;DHT22;16985;50.814;8.530;2023-09-18T12:46:17;21.40;99.90
30174;DHT22;16985;50.814;8.530;2023-09-18T12:48:44;21.40;99.90
30174;DHT22;16985;50.814;8.530;2023-09-18T12:51:13;21.40;99.90
30174;DHT22;16985;50.814;8.530;2023-09-18T12:53:40;21.40;99.90
30174;DHT22;16985;50.814;8.530;2023-09-18T12:56:11;21.40;99.20
30174;DHT22;16985;50.814;8.530;2023-09-18T12:58:41;21.40;98.50
30174;DHT22;16985;50.814;8.530;2023-09-18T13:01:09;21.40;98.40
30174;DHT22;16985;50.814;8.530;2023-09-18T13:03:46;21.40;98.40
30174;DHT22;16985;50.814;8.530;2023-09-18T13:06:16;21.40;98.40
30174;DHT22;16985;50.814;8.530;2023-09-18T13:08:43;21.30;98.40
30174;DHT22;16985;50.814;8.530;2023-09-18T13:11:09;21.30;98.40
30174;DHT22;16985;50.814;8.530;2023-09-18T13:13:37;21.40;98.60
30174;DHT22;16985;50.814;8.530;2023-09-18T13:16:10;21.40;98.80
30174;DHT22;16985;50.814;8.530;2023-09-18T13:18:36;21.40;99.20
30174;DHT22;16985;50.814;8.530;2023-09-18T13:21:12;21.50;99.20
30174;DHT22;16985;50.814;8.530;2023-09-18T13:23:39;21.50;99.20
30174;DHT22;16985;50.814;8.530;2023-09-18T13:26:07;21.50;99.30
30174;DHT22;16985;50.814;8.530;2023-09-18T13:28:34;21.60;99.00
30174;DHT22;16985;50.814;8.530;2023-09-18T13:31:05;21.70;99.00
30174;DHT22;16985;50.814;8.530;2023-09-18T13:33:32;21.70;98.80
30174;DHT22;16985;50.814;8.530;2023-09-18T13:35:59;21.80;98.70
30174;DHT22;16985;50.814;8.530;2023-09-18T13:38:25;21.90;98.50
30174;DHT22;16985;50.814;8.530;2023-09-18T13:40:53;22.00;98.20
30174;DHT22;16985;50.814;8.530;2023-09-18T13:43:20;22.10;97.70
30174;DHT22;16985;50.814;8.530;2023-09-18T13:45:50;22.10;97.50
30174;DHT22;16985;50.814;8.530;2023-09-18T13:48:17;22.30;97.50
30174;DHT22;16985;50.814;8.530;2023-09-18T13:50:44;22.30;97.50
30174;DHT22;16985;50.814;8.530;2023-09-18T13:53:11;22.30;97.30
30174;DHT22;16985;50.814;8.530;2023-09-18T13:55:37;22.40;96.80
30174;DHT22;16985;50.814;8.530;2023-09-18T13:58:03;22.40;96.40
30174;DHT22;16985;50.814;8.530;2023-09-18T14:00:29;22.30;95.70
30174;DHT22;16985;50.814;8.530;2023-09-18T14:02:55;22.40;95.40
30174;DHT22;16985;50.814;8.530;2023-09-18T14:05:21;22.40;95.40
30174;DHT22;16985;50.814;8.530;2023-09-18T14:07:47;22.40;95.10
30174;DHT22;16985;50.814;8.530;2023-09-18T14:10:13;22.30;94.90
30174;DHT22;16985;50.814;8.530;2023-09-18T14:12:43;22.30;94.90
30174;DHT22;16985;50.814;8.530;2023-09-18T14:15:09;22.30;94.60
30174;DHT22;16985;50.814;8.530;2023-09-18T14:17:39;22.20;94.60
30174;DHT22;16985;50.814;8.530;2023-09-18T14:20:05;22.20;94.70
30174;DHT22;16985;50.814;8.530;2023-09-18T14:22:33;22.20;94.90
30174;DHT22;16985;50.814;8.530;2023-09-18T14:24:59;22.20;95.10
30174;DHT22;16985;50.814;8.530;2023-09-18T14:27:25;22.30;95.20
30174;DHT22;16985;50.814;8.530;2023-09-18T14:29:51;22.40;95.10
30174;DHT22;16985;50.814;8.530;2023-09-18T14:32:17;22.40;94.90
30174;DHT22;16985;50.814;8.530;2023-09-18T14:34:44;22.40;94.50
30174;DHT22;16985;50.814;8.530;2023-09-18T14:37:11;22.40;94.20
30174;DHT22;16985;50.814;8.530;2023-09-18T14:39:37;22.30;93.80
30174;DHT22;16985;50.814;8.530;2023-09-18T14:42:02;22.40;93.80
30174;DHT22;16985;50.814;8.530;2023-09-18T14:44:28;22.40;93.50
30174;DHT22;16985;50.814;8.530;2023-09-18T14:46:55;22.40;93.60
30174;DHT22;16985;50.814;8.530;2023-09-18T14:49:22;22.40;93.70
30174;DHT22;16985;50.814;8.530;2023-09-18T14:51:48;22.40;93.80
30174;DHT22;16985;50.814;8.530;2023-09-18T14:54:15;22.40;93.80
30174;DHT22;16985;50.814;8.530;2023-09-18T14:56:41;22.30;94.10
30174;DHT22;16985;50.814;8.530;2023-09-18T14:59:08;22.40;94.20
30174;DHT22;16985;50.814;8.530;2023-09-18T15:01:34;22.40;94.10
30174;DHT22;16985;50.814;8.530;2023-09-18T15:04:00;22.50;93.70
30174;DHT22;16985;50.814;8.530;2023-09-18T15:06:26;22.40;93.20
30174;DHT22;16985;50.814;8.530;2023-09-18T15:08:52;22.40;93.10
30174;DHT22;16985;50.814;8.530;2023-09-18T15:11:18;22.30;93.20
30174;DHT22;16985;50.814;8.530;2023-09-18T15:13:45;22.50;93.30
30174;DHT22;16985;50.814;8.530;2023-09-18T15:16:11;22.40;93.10
30174;DHT22;16985;50.814;8.530;2023-09-18T15:18:38;22.40;93.00
30174;DHT22;16985;50.814;8.530;2023-09-18T15:21:05;22.40;93.00
30174;DHT22;16985;50.814;8.530;2023-09-18T15:23:31;22.40;93.10
30174;DHT22;16985;50.814;8.530;2023-09-18T15:25:57;22.30;93.00
30174;DHT22;16985;50.814;8.530;2023-09-18T15:28:26;22.30;93.10
30174;DHT22;16985;50.814;8.530;2023-09-18T15:30:54;22.30;93.10
30174;DHT22;16985;50.814;8.530;2023-09-18T15:33:20;22.30;93.10
30174;DHT22;16985;50.814;8.530;2023-09-18T15:35:51;22.30;93.20
30174;DHT22;16985;50.814;8.530;2023-09-18T15:38:20;22.20;93.20
30174;DHT22;16985;50.814;8.530;2023-09-18T15:40:47;22.20;93.30
30174;DHT22;16985;50.814;8.530;2023-09-18T15:43:14;22.10;93.30
30174;DHT22;16985;50.814;8.530;2023-09-18T15:45:40;22.10;93.40